Time;durP1;ratioP1;P1;durP2;ratioP2;P2;SDS_P1;SDS_P2;PMS_P1;PMS_P2;Temp;Humidity;BMP_temperature;BMP_pressure;BME280_temperature;BME280_humidity;BME280_pressure;Samples;Min_cycle;Max_cycle;Signal;HPM_P1;HPM_P2
2023/04/07 00:01:34;;;;;;;15.80;8.10;;;5.80;99.90;;;;;;5114588;27;20027;-74
2023/04/07 00:04:00;;;;;;;9.80;6.38;;;5.70;99.90;;;;;;5132104;27;20110;-74
2023/04/07 00:06:26;;;;;;;12.93;7.15;;;5.70;99.90;;;;;;5132659;27;20031;-74
2023/04/07 00:08:52;;;;;;;10.27;7.00;;;5.80;99.90;;;;;;5132702;27;20569;-74
2023/04/07 00:11:18;;;;;;;12.43;6.85;;;5.70;99.90;;;;;;5113877;27;20114;-74
2023/04/07 00:13:43;;;;;;;12.07;7.85;;;5.70;99.90;;;;;;5133166;27;20394;-74
2023/04/07 00:16:09;;;;;;;13.38;8.52;;;5.80;99.90;;;;;;5113429;27;20031;-74
2023/04/07 00:18:35;;;;;;;17.50;8.02;;;5.80;99.90;;;;;;5132864;27;20046;-74
2023/04/07 00:21:00;;;;;;;12.52;7.22;;;5.80;99.90;;;;;;5113311;27;20106;-74
2023/04/07 00:23:26;;;;;;;10.48;6.43;;;5.70;99.90;;;;;;5132533;27;20061;-74
2023/04/07 00:25:52;;;;;;;14.52;7.68;;;5.70;99.90;;;;;;5132252;27;20084;-75
2023/04/07 00:28:18;;;;;;;9.75;7.53;;;5.50;99.90;;;;;;5131698;27;20099;-74
2023/04/07 00:30:43;;;;;;;12.18;6.55;;;5.50;99.90;;;;;;5132216;27;20421;-74
2023/04/07 00:33:09;;;;;;;9.35;6.65;;;5.50;99.90;;;;;;5131697;27;20023;-78
2023/04/07 00:35:35;;;;;;;12.82;7.47;;;5.50;99.90;;;;;;5132107;27;20042;-74
2023/04/07 00:38:01;;;;;;;8.85;6.20;;;5.50;99.90;;;;;;5131698;27;20023;-74
2023/04/07 00:40:27;;;;;;;9.70;6.25;;;5.50;99.90;;;;;;5132277;27;20019;-74
2023/04/07 00:42:53;;;;;;;12.82;6.90;;;5.50;99.90;;;;;;5131993;27;20019;-74
2023/04/07 00:45:18;;;;;;;14.65;7.07;;;5.60;99.90;;;;;;5131430;27;20151;-74
2023/04/07 00:47:44;;;;;;;11.30;6.70;;;5.60;99.90;;;;;;5132074;27;20015;-74
2023/04/07 00:50:10;;;;;;;12.30;7.47;;;5.70;99.90;;;;;;5131154;27;20160;-74
2023/04/07 00:52:36;;;;;;;12.85;7.93;;;5.60;99.90;;;;;;5131965;27;20031;-74
2023/04/07 00:55:02;;;;;;;13.98;8.20;;;5.50;99.90;;;;;;5131136;27;20031;-73
2023/04/07 00:57:27;;;;;;;12.23;7.45;;;5.50;99.90;;;;;;5131690;27;20031;-73
2023/04/07 00:59:55;;;;;;;13.73;7.47;;;5.50;99.90;;;;;;5131488;27;20027;-73
2023/04/07 01:02:50;;;;;;;10.57;6.03;;;5.50;99.90;;;;;;5131768;27;20479;-73
2023/04/07 01:05:41;;;;;;;12.18;6.80;;;5.40;99.90;;;;;;5094098;27;20035;-74
2023/04/07 01:08:28;;;;;;;13.20;6.00;;;5.30;99.90;;;;;;5130250;27;20063;-74
2023/04/07 01:11:16;;;;;;;9.25;6.15;;;5.20;99.90;;;;;;5131716;27;20083;-74
2023/04/07 01:13:44;;;;;;;10.93;6.18;;;5.20;99.90;;;;;;5131382;27;20490;-73
2023/04/07 01:16:15;;;;;;;10.25;6.22;;;5.20;99.90;;;;;;5130640;27;20042;-74
2023/04/07 01:18:46;;;;;;;8.43;6.05;;;5.20;99.90;;;;;;5130675;27;20034;-73
2023/04/07 01:21:17;;;;;;;10.38;6.00;;;5.10;99.90;;;;;;5130862;27;20084;-72
2023/04/07 01:23:49;;;;;;;10.48;6.90;;;5.10;99.90;;;;;;5131050;27;20162;-72
2023/04/07 01:26:22;;;;;;;13.35;6.30;;;5.00;99.90;;;;;;5130832;27;20035;-74
2023/04/07 01:28:56;;;;;;;;;;;5.10;99.90;;;;;;5131635;27;20070;-73
2023/04/07 01:31:25;;;;;;;9.82;6.28;;;5.00;99.90;;;;;;5131222;27;19907;-73
2023/04/07 01:33:54;;;;;;;11.48;6.82;;;5.00;99.90;;;;;;5130921;27;20076;-74
2023/04/07 01:36:20;;;;;;;11.57;6.57;;;5.00;99.90;;;;;;5130478;27;20113;-73
2023/04/07 01:38:48;;;;;;;12.38;6.53;;;5.00;99.90;;;;;;5131009;27;20037;-73
2023/04/07 01:41:15;;;;;;;10.38;7.45;;;5.00;99.90;;;;;;5130532;27;20027;-73
2023/04/07 01:43:41;;;;;;;13.05;7.75;;;5.10;99.90;;;;;;5112682;27;20422;-73
2023/04/07 01:46:08;;;;;;;12.18;7.40;;;5.10;99.90;;;;;;5130576;27;20111;-73
2023/04/07 01:48:35;;;;;;;12.02;7.63;;;5.00;99.90;;;;;;5131827;27;20023;-74
2023/04/07 01:51:03;;;;;;;13.82;7.60;;;5.00;99.90;;;;;;5130640;27;20023;-75
2023/04/07 01:53:30;;;;;;;14.45;8.00;;;5.00;99.90;;;;;;5131677;27;20058;-74
2023/04/07 01:55:55;;;;;;;13.98;6.93;;;4.90;99.90;;;;;;5131252;28;20035;-74
2023/04/07 01:58:21;;;;;;;15.13;7.65;;;4.90;99.90;;;;;;5130903;28;20027;-74
2023/04/07 02:00:49;;;;;;;12.65;7.82;;;4.90;99.90;;;;;;5131250;28;20376;-74
2023/04/07 02:03:22;;;;;;;10.32;7.65;;;5.00;99.90;;;;;;5130743;28;20023;-74
2023/04/07 02:05:55;;;;;;;14.27;8.13;;;5.00;99.90;;;;;;5131384;28;20019;-75
2023/04/07 02:08:24;;;;;;;11.52;7.50;;;5.00;99.90;;;;;;5133810;27;20055;-74
2023/04/07 02:10:51;;;;;;;11.57;7.55;;;4.90;99.90;;;;;;5135774;27;20031;-74
2023/04/07 02:13:19;;;;;;;12.30;7.72;;;4.90;99.90;;;;;;5134827;27;20843;-75
2023/04/07 02:15:47;;;;;;;15.25;8.25;;;4.90;99.90;;;;;;5135511;27;20027;-74
2023/04/07 02:18:14;;;;;;;11.52;8.00;;;4.90;99.90;;;;;;5135209;27;20075;-74
2023/04/07 02:20:42;;;;;;;15.70;8.98;;;4.80;99.90;;;;;;5135368;27;20042;-74
2023/04/07 02:23:08;;;;;;;12.20;8.00;;;4.70;99.90;;;;;;5134697;27;20039;-74
2023/04/07 02:25:37;;;;;;;12.57;8.23;;;4.70;99.90;;;;;;5135129;27;20042;-74
2023/04/07 02:28:03;;;;;;;12.32;8.05;;;4.70;99.90;;;;;;5134329;27;20421;-74
2023/04/07 02:30:29;;;;;;;12.25;7.40;;;4.70;99.90;;;;;;5135031;27;20051;-74
2023/04/07 02:32:55;;;;;;;15.55;8.40;;;4.70;99.90;;;;;;5135141;27;20072;-74
2023/04/07 02:35:21;;;;;;;12.70;8.23;;;4.70;99.90;;;;;;5134768;27;20023;-74
2023/04/07 02:37:47;;;;;;;15.57;8.15;;;4.60;99.90;;;;;;5135315;27;20030;-74
2023/04/07 02:40:13;;;;;;;16.55;8.98;;;4.70;99.90;;;;;;5135009;27;20023;-74
2023/04/07 02:42:39;;;;;;;12.43;7.82;;;4.70;99.90;;;;;;5135822;27;20038;-74
2023/04/07 02:45:07;;;;;;;15.50;9.25;;;4.70;99.90;;;;;;5134232;27;20042;-75
2023/04/07 02:47:34;;;;;;;17.35;9.65;;;4.60;99.90;;;;;;5135116;27;20036;-74
2023/04/07 02:50:00;;;;;;;10.13;7.65;;;4.50;99.90;;;;;;5134851;27;20031;-77
2023/04/07 02:52:29;;;;;;;15.73;8.85;;;4.40;99.90;;;;;;5116121;27;20030;-74
2023/04/07 02:54:54;;;;;;;12.73;7.78;;;4.30;99.90;;;;;;5134957;27;20106;-74
2023/04/07 02:57:20;;;;;;;14.43;8.85;;;4.30;99.90;;;;;;5134527;27;20196;-74
2023/04/07 02:59:46;;;;;;;14.80;8.35;;;4.30;99.90;;;;;;5134612;27;20409;-74
2023/04/07 03:02:12;;;;;;;14.52;9.18;;;4.30;99.90;;;;;;5134023;27;20047;-75
2023/04/07 03:04:37;;;;;;;12.63;8.00;;;4.40;99.90;;;;;;5134504;27;20035;-74
2023/04/07 03:07:03;;;;;;;15.23;8.65;;;4.40;99.90;;;;;;5133941;27;20038;-77
2023/04/07 03:09:29;;;;;;;18.35;9.13;;;4.40;99.90;;;;;;5116164;27;20042;-74
2023/04/07 03:11:55;;;;;;;13.40;8.98;;;4.40;99.90;;;;;;5134467;27;20034;-74
2023/04/07 03:14:21;;;;;;;18.15;10.48;;;4.40;99.90;;;;;;5133928;27;20337;-75
2023/04/07 03:16:47;;;;;;;15.15;9.25;;;4.40;99.90;;;;;;5134185;27;20436;-74
2023/04/07 03:19:12;;;;;;;15.07;8.13;;;4.50;99.90;;;;;;5133738;27;20034;-75
2023/04/07 03:21:38;;;;;;;13.57;8.77;;;4.40;99.90;;;;;;5115542;27;20027;-75
2023/04/07 03:24:05;;;;;;;12.60;9.30;;;4.30;99.90;;;;;;5133304;27;20047;-77
2023/04/07 03:26:32;;;;;;;13.95;8.82;;;4.30;99.90;;;;;;5134614;27;20058;-74
2023/04/07 03:28:58;;;;;;;13.20;9.10;;;4.30;99.90;;;;;;5134820;27;20027;-74
2023/04/07 03:31:24;;;;;;;17.75;9.60;;;4.30;99.90;;;;;;5133664;27;20584;-74
2023/04/07 03:33:50;;;;;;;16.48;10.27;;;4.30;99.90;;;;;;5133806;27;20019;-75
2023/04/07 03:36:17;;;;;;;20.02;10.02;;;4.20;99.90;;;;;;5133734;27;20035;-75
2023/04/07 03:38:46;;;;;;;13.82;9.38;;;4.10;99.90;;;;;;5134099;27;20071;-74
2023/04/07 03:41:11;;;;;;;15.98;9.68;;;4.10;99.90;;;;;;5133439;27;20034;-75
2023/04/07 03:43:37;;;;;;;17.02;11.18;;;4.10;99.90;;;;;;5134056;27;20023;-75
2023/04/07 03:46:03;;;;;;;17.88;12.18;;;4.10;99.90;;;;;;5133927;27;20506;-74
2023/04/07 03:48:28;;;;;;;17.42;11.35;;;4.20;99.90;;;;;;5133796;27;20027;-75
2023/04/07 03:50:54;;;;;;;16.13;10.38;;;4.20;99.90;;;;;;5133899;27;20096;-75
2023/04/07 03:53:20;;;;;;;18.92;9.98;;;4.10;99.90;;;;;;5133814;27;20157;-75
2023/04/07 03:55:46;;;;;;;15.27;10.50;;;4.10;99.90;;;;;;5133736;27;20031;-75
2023/04/07 03:58:12;;;;;;;17.52;10.82;;;4.10;99.90;;;;;;5133198;27;20027;-75
2023/04/07 04:00:38;;;;;;;16.92;9.43;;;4.10;99.90;;;;;;5134245;27;20039;-74
2023/04/07 04:03:04;;;;;;;14.20;10.32;;;4.10;99.90;;;;;;5133314;27;20088;-75
2023/04/07 04:05:30;;;;;;;18.10;10.18;;;4.10;99.90;;;;;;5133340;27;20107;-75
2023/04/07 04:07:55;;;;;;;15.48;10.50;;;4.10;99.90;;;;;;5115333;27;20055;-75
2023/04/07 04:10:21;;;;;;;19.35;11.65;;;4.10;99.90;;;;;;5132850;27;20106;-75
2023/04/07 04:12:48;;;;;;;14.98;10.82;;;4.10;99.90;;;;;;5133840;27;20054;-75
2023/04/07 04:15:14;;;;;;;17.25;11.13;;;4.10;99.90;;;;;;5132628;27;20508;-75
2023/04/07 04:17:41;;;;;;;16.83;11.35;;;4.20;99.90;;;;;;5133244;27;20027;-75
2023/04/07 04:20:07;;;;;;;15.48;10.75;;;4.10;99.90;;;;;;5133244;27;20084;-78
2023/04/07 04:22:33;;;;;;;16.17;10.75;;;4.10;99.90;;;;;;5132627;27;20122;-75
2023/04/07 04:25:00;;;;;;;17.35;10.15;;;4.00;99.90;;;;;;5132989;27;20114;-74
2023/04/07 04:27:26;;;;;;;17.67;11.45;;;4.10;99.90;;;;;;5132464;27;20076;-75
2023/04/07 04:29:52;;;;;;;16.15;10.77;;;4.10;99.90;;;;;;5132039;27;20092;-74
2023/04/07 04:32:18;;;;;;;14.55;10.05;;;4.10;99.90;;;;;;5132418;27;20035;-75
2023/04/07 04:34:45;;;;;;;15.25;10.43;;;4.10;99.90;;;;;;5132409;27;20015;-74
2023/04/07 04:37:10;;;;;;;13.40;9.70;;;4.10;99.90;;;;;;5132508;27;20072;-77
2023/04/07 04:39:36;;;;;;;13.88;9.88;;;4.00;99.90;;;;;;5132529;27;20023;-75
2023/04/07 04:42:02;;;;;;;16.70;9.98;;;4.00;99.90;;;;;;5132762;27;20030;-74
2023/04/07 04:44:29;;;;;;;14.90;10.10;;;4.00;99.90;;;;;;5132119;27;20248;-74
2023/04/07 04:46:55;;;;;;;17.42;10.63;;;4.00;99.90;;;;;;5132928;27;20027;-74
2023/04/07 04:49:21;;;;;;;15.50;9.93;;;4.00;99.90;;;;;;5131906;27;20034;-75
2023/04/07 04:51:47;;;;;;;15.52;10.23;;;3.90;99.90;;;;;;5132731;27;20027;-74
2023/04/07 04:54:13;;;;;;;17.48;10.00;;;3.80;99.90;;;;;;5131799;27;20148;-75
2023/04/07 04:56:38;;;;;;;16.45;10.40;;;3.70;99.90;;;;;;5131971;27;20035;-74
2023/04/07 04:59:04;;;;;;;15.32;10.65;;;3.70;99.90;;;;;;5114010;27;20487;-74
2023/04/07 05:01:30;;;;;;;19.42;10.93;;;3.70;99.90;;;;;;5131788;27;20069;-75
2023/04/07 05:03:56;;;;;;;15.75;10.95;;;3.60;99.90;;;;;;5132618;27;20019;-75
2023/04/07 05:06:21;;;;;;;16.48;11.00;;;3.60;99.90;;;;;;5132040;27;20092;-74
2023/04/07 05:08:47;;;;;;;18.45;11.43;;;3.50;99.90;;;;;;5131940;27;20031;-74
2023/04/07 05:11:13;;;;;;;14.20;9.18;;;3.50;99.90;;;;;;5131849;27;20535;-75
2023/04/07 05:13:39;;;;;;;13.35;10.27;;;3.50;99.90;;;;;;5131838;27;20102;-74
2023/04/07 05:16:05;;;;;;;20.63;10.88;;;3.50;99.90;;;;;;5131698;27;20537;-74
2023/04/07 05:18:31;;;;;;;16.92;11.63;;;3.40;99.90;;;;;;5131462;27;20027;-74
2023/04/07 05:20:57;;;;;;;16.08;12.00;;;3.30;99.90;;;;;;5132005;27;20087;-74
2023/04/07 05:23:22;;;;;;;22.23;12.05;;;3.40;99.90;;;;;;5112472;27;20166;-73
2023/04/07 05:25:49;;;;;;;17.83;11.40;;;3.40;99.90;;;;;;5131841;27;20460;-73
2023/04/07 05:28:15;;;;;;;20.35;10.13;;;3.30;99.90;;;;;;5131081;27;20035;-73
2023/04/07 05:30:40;;;;;;;19.58;11.50;;;3.20;99.90;;;;;;5131737;27;20049;-73
2023/04/07 05:33:06;;;;;;;21.00;11.23;;;3.30;99.90;;;;;;5113050;27;20023;-74
2023/04/07 05:35:32;;;;;;;19.73;10.40;;;3.30;99.90;;;;;;5130918;27;20035;-75
2023/04/07 05:37:58;;;;;;;17.38;9.75;;;3.30;99.90;;;;;;5131760;27;20023;-74
2023/04/07 05:40:23;;;;;;;17.85;10.38;;;3.20;99.90;;;;;;5130776;27;20430;-74
2023/04/07 05:42:49;;;;;;;15.77;10.13;;;3.20;99.90;;;;;;5130314;27;20023;-73
2023/04/07 05:45:15;;;;;;;13.43;9.35;;;3.20;99.90;;;;;;5127090;27;20100;-74
2023/04/07 05:47:41;;;;;;;16.67;9.82;;;3.20;99.90;;;;;;5110843;28;20115;-74
2023/04/07 05:50:07;;;;;;;15.77;9.77;;;3.10;99.90;;;;;;5111170;28;20027;-74
2023/04/07 05:52:33;;;;;;;12.55;8.35;;;3.10;99.90;;;;;;5110528;28;20023;-74
2023/04/07 05:54:59;;;;;;;14.65;9.52;;;3.20;99.90;;;;;;5110918;28;20407;-74
2023/04/07 05:57:26;;;;;;;14.43;9.50;;;3.20;99.90;;;;;;5092143;28;20483;-74
2023/04/07 05:59:52;;;;;;;15.30;9.35;;;3.20;99.90;;;;;;5110716;28;20028;-73
2023/04/07 06:02:18;;;;;;;16.15;9.32;;;3.20;99.90;;;;;;5109888;28;20505;-76
2023/04/07 06:04:44;;;;;;;13.07;8.82;;;3.20;99.90;;;;;;5110831;28;20353;-74
2023/04/07 06:07:09;;;;;;;12.07;8.98;;;3.30;99.90;;;;;;5110527;28;20035;-74
2023/04/07 06:09:35;;;;;;;11.68;7.90;;;3.30;99.90;;;;;;5110488;28;20030;-74
2023/04/07 06:12:03;;;;;;;14.18;8.27;;;3.30;99.90;;;;;;5111276;28;20028;-74
2023/04/07 06:14:29;;;;;;;13.32;8.88;;;3.40;99.90;;;;;;5110085;28;20083;-74
2023/04/07 06:16:55;;;;;;;13.15;8.70;;;3.60;99.90;;;;;;5110865;28;20494;-75
2023/04/07 06:19:21;;;;;;;14.95;8.10;;;3.70;99.90;;;;;;5110201;28;20058;-74
2023/04/07 06:21:47;;;;;;;13.18;8.43;;;3.80;99.90;;;;;;5110485;28;20463;-74
2023/04/07 06:24:12;;;;;;;13.70;7.32;;;3.80;99.90;;;;;;5110608;28;20493;-74
2023/04/07 06:26:39;;;;;;;10.77;6.85;;;4.00;99.90;;;;;;5110208;28;20103;-75
2023/04/07 06:29:05;;;;;;;12.00;6.65;;;4.20;99.90;;;;;;5110482;28;20027;-74
2023/04/07 06:31:31;;;;;;;9.50;6.35;;;4.40;99.90;;;;;;5110100;28;20034;-74
2023/04/07 06:33:56;;;;;;;12.77;6.15;;;4.40;99.90;;;;;;5092051;28;20076;-74
2023/04/07 06:36:22;;;;;;;11.98;6.60;;;4.50;99.90;;;;;;5109837;28;20376;-74
2023/04/07 06:38:48;;;;;;;11.95;6.50;;;4.60;99.90;;;;;;5110561;28;20177;-75
2023/04/07 06:41:16;;;;;;;9.45;5.88;;;4.60;99.90;;;;;;5110357;28;20055;-74
2023/04/07 06:43:50;;;;;;;10.20;6.38;;;4.70;99.90;;;;;;5110273;28;20031;-75
2023/04/07 06:46:16;;;;;;;9.02;6.50;;;4.80;99.90;;;;;;5110353;28;20131;-74
2023/04/07 06:48:42;;;;;;;11.90;6.45;;;5.00;99.90;;;;;;5110288;28;20023;-74
2023/04/07 06:51:07;;;;;;;8.65;5.97;;;5.00;99.90;;;;;;5110353;28;20024;-74
2023/04/07 06:53:33;;;;;;;8.90;5.75;;;5.00;99.90;;;;;;5110961;28;20019;-74
2023/04/07 06:56:07;;;;;;;7.80;5.93;;;5.00;99.90;;;;;;5114282;28;20043;-75
2023/04/07 06:58:34;;;;;;;10.63;5.70;;;5.10;99.90;;;;;;5113529;28;20489;-75
2023/04/07 07:01:00;;;;;;;9.15;6.32;;;5.10;99.90;;;;;;5114353;28;20503;-75
2023/04/07 07:03:28;;;;;;;8.95;5.97;;;5.20;99.90;;;;;;5113695;28;20115;-75
2023/04/07 07:05:55;;;;;;;7.38;5.38;;;5.20;99.90;;;;;;5114005;28;20035;-75
2023/04/07 07:08:21;;;;;;;11.45;6.00;;;5.20;99.90;;;;;;5120527;27;20330;-75
2023/04/07 07:10:47;;;;;;;7.45;5.78;;;5.30;99.90;;;;;;5134404;27;20023;-75
2023/04/07 07:13:13;;;;;;;10.52;6.97;;;5.40;99.90;;;;;;5133933;27;20086;-75
2023/04/07 07:15:38;;;;;;;8.48;5.50;;;5.60;99.90;;;;;;5133917;27;20035;-74
2023/04/07 07:18:04;;;;;;;10.50;6.63;;;5.70;99.90;;;;;;5134303;27;20459;-73
2023/04/07 07:20:30;;;;;;;8.77;5.30;;;5.80;99.90;;;;;;5133771;27;20034;-73
2023/04/07 07:22:57;;;;;;;11.65;5.72;;;5.90;99.90;;;;;;5133821;27;20054;-73
2023/04/07 07:25:25;;;;;;;8.68;5.53;;;6.10;99.90;;;;;;5133631;27;20114;-74
2023/04/07 07:27:52;;;;;;;9.63;5.45;;;6.20;99.90;;;;;;5134900;27;20031;-74
2023/04/07 07:30:22;;;;;;;6.78;5.40;;;6.30;99.90;;;;;;5134168;27;20126;-74
2023/04/07 07:32:48;;;;;;;10.52;6.32;;;6.40;99.90;;;;;;5134136;27;20020;-74
2023/04/07 07:35:14;;;;;;;11.98;7.10;;;6.50;99.90;;;;;;5133900;27;20027;-73
2023/04/07 07:37:40;;;;;;;9.50;6.20;;;6.60;99.90;;;;;;5133553;27;20023;-74
2023/04/07 07:40:06;;;;;;;14.68;6.57;;;6.70;99.90;;;;;;5134420;27;20015;-73
2023/04/07 07:42:32;;;;;;;12.10;6.30;;;6.90;99.90;;;;;;5134157;27;20095;-74
2023/04/07 07:44:58;;;;;;;9.10;5.20;;;7.00;99.90;;;;;;5133737;27;20027;-74
2023/04/07 07:47:25;;;;;;;9.93;5.38;;;7.20;99.90;;;;;;5132782;27;20023;-74
2023/04/07 07:49:51;;;;;;;9.13;5.47;;;7.40;99.90;;;;;;5133249;27;20051;-73
2023/04/07 07:52:17;;;;;;;13.07;5.63;;;7.60;99.90;;;;;;5133852;27;20038;-74
2023/04/07 07:54:43;;;;;;;12.10;6.20;;;7.70;99.90;;;;;;5132909;27;20046;-75
2023/04/07 07:57:08;;;;;;;14.32;6.30;;;7.90;99.90;;;;;;5133348;27;20035;-75
2023/04/07 07:59:34;;;;;;;14.63;6.32;;;8.00;99.90;;;;;;5133210;27;20452;-75
2023/04/07 08:02:00;;;;;;;14.18;6.70;;;8.20;99.90;;;;;;5133271;27;20102;-75
2023/04/07 08:04:26;;;;;;;13.40;6.18;;;8.40;99.90;;;;;;5132300;27;20072;-74
2023/04/07 08:06:52;;;;;;;9.30;5.60;;;8.60;99.90;;;;;;5132893;27;20031;-74
2023/04/07 08:09:18;;;;;;;11.23;5.57;;;8.70;99.90;;;;;;5133221;27;20035;-73
2023/04/07 08:11:44;;;;;;;12.93;5.13;;;8.90;99.90;;;;;;5132839;27;20023;-75
2023/04/07 08:14:10;;;;;;;11.80;6.00;;;9.00;99.90;;;;;;5133274;27;20029;-75
2023/04/07 08:16:37;;;;;;;14.25;5.60;;;9.30;99.90;;;;;;5132754;27;20115;-75
2023/04/07 08:19:03;;;;;;;13.32;5.38;;;9.40;99.90;;;;;;5133279;27;20110;-75
2023/04/07 08:21:28;;;;;;;13.32;6.85;;;9.50;99.90;;;;;;5132946;27;20027;-75
2023/04/07 08:23:55;;;;;;;13.05;5.28;;;9.70;99.90;;;;;;5132938;27;20349;-73
2023/04/07 08:26:21;;;;;;;8.50;4.25;;;9.80;99.90;;;;;;5133163;27;20118;-75
2023/04/07 08:28:50;;;;;;;10.52;4.20;;;10.00;99.90;;;;;;5114098;27;20023;-73
2023/04/07 08:31:16;;;;;;;6.32;3.42;;;10.10;99.90;;;;;;5132928;27;20104;-75
2023/04/07 08:33:41;;;;;;;5.82;3.20;;;10.20;99.90;;;;;;5132144;27;20027;-74
2023/04/07 08:36:07;;;;;;;9.35;3.03;;;10.30;99.90;;;;;;5114287;27;20035;-75
2023/04/07 08:38:33;;;;;;;9.32;2.83;;;10.40;99.90;;;;;;5113600;27;20118;-74
2023/04/07 08:41:06;;;;;;;7.60;3.45;;;10.60;99.90;;;;;;5132916;27;20485;-75
2023/04/07 08:43:35;;;;;;;6.60;2.75;;;10.80;99.90;;;;;;5132071;27;20019;-75
2023/04/07 08:46:01;;;;;;;5.60;2.42;;;10.80;99.90;;;;;;5132785;27;20416;-75
2023/04/07 08:48:33;;;;;;;7.53;2.70;;;10.80;99.90;;;;;;5131981;27;20027;-76
2023/04/07 08:51:04;;;;;;;5.75;2.25;;;10.90;99.90;;;;;;5114598;27;20019;-76
2023/04/07 08:53:42;;;;;;;8.70;2.50;;;10.80;99.90;;;;;;5132192;27;20015;-75
2023/04/07 08:56:10;;;;;;;8.77;2.70;;;10.90;99.90;;;;;;5132594;27;20027;-75
2023/04/07 08:58:36;;;;;;;7.75;2.60;;;11.00;99.90;;;;;;5132481;27;20084;-75
2023/04/07 09:01:06;;;;;;;7.43;2.80;;;11.00;99.90;;;;;;5132981;27;20034;-74
2023/04/07 09:03:33;;;;;;;9.07;2.63;;;11.00;99.90;;;;;;5131845;27;20058;-75
2023/04/07 09:06:00;;;;;;;5.40;2.85;;;11.00;99.90;;;;;;5113884;27;20034;-75
2023/04/07 09:08:27;;;;;;;6.45;3.15;;;11.20;99.90;;;;;;5113158;27;20031;-78
2023/04/07 09:10:54;;;;;;;6.03;2.60;;;11.30;99.90;;;;;;5132382;27;20019;-75
2023/04/07 09:13:20;;;;;;;3.72;2.15;;;11.40;99.90;;;;;;5131931;27;20023;-75
2023/04/07 09:15:45;;;;;;;6.32;1.90;;;11.50;99.90;;;;;;5131297;27;20076;-75
2023/04/07 09:18:11;;;;;;;3.70;1.40;;;11.50;99.90;;;;;;5131833;27;20023;-75
2023/04/07 09:21:00;;;;;;;8.57;1.52;;;11.60;99.90;;;;;;5131562;27;20023;-74
2023/04/07 09:23:37;;;;;;;2.03;1.00;;;11.70;99.90;;;;;;5131694;27;20051;-75
2023/04/07 09:26:21;;;;;;;2.65;1.20;;;11.90;99.90;;;;;;5131683;27;20050;-74
2023/04/07 09:28:49;;;;;;;5.15;1.20;;;11.90;99.90;;;;;;5131253;27;20030;-73
2023/04/07 09:31:15;;;;;;;5.65;1.63;;;11.90;99.90;;;;;;5131537;27;20038;-74
2023/04/07 09:33:41;;;;;;;3.97;1.75;;;11.90;99.90;;;;;;5130840;27;20413;-76
2023/04/07 09:36:07;;;;;;;6.03;1.63;;;11.90;99.90;;;;;;5131692;27;20425;-75
2023/04/07 09:38:39;;;;;;;8.95;1.70;;;11.90;99.90;;;;;;5131078;27;20078;-75
2023/04/07 09:41:09;;;;;;;6.13;1.92;;;11.90;99.90;;;;;;5131677;27;20027;-74
2023/04/07 09:43:39;;;;;;;3.90;1.92;;;11.90;99.90;;;;;;5131558;27;20493;-75
2023/04/07 09:46:16;;;;;;;5.57;1.77;;;11.90;99.90;;;;;;5131853;27;20034;-76
2023/04/07 09:48:44;;;;;;;8.63;2.30;;;12.10;99.90;;;;;;5131574;27;20037;-76
2023/04/07 09:51:13;;;;;;;6.78;1.63;;;12.20;99.90;;;;;;5131436;27;20587;-75
2023/04/07 09:53:48;;;;;;;5.18;1.65;;;12.30;99.90;;;;;;5131164;27;20053;-75
2023/04/07 09:56:18;;;;;;;6.10;1.83;;;12.30;99.90;;;;;;5131280;27;20515;-75
2023/04/07 09:58:45;;;;;;;4.00;1.45;;;12.30;99.90;;;;;;5130892;28;20161;-76
2023/04/07 10:01:12;;;;;;;5.03;1.60;;;12.40;99.90;;;;;;5131678;28;20035;-75
2023/04/07 10:03:38;;;;;;;5.22;1.85;;;12.30;99.90;;;;;;5131400;28;20162;-76
2023/04/07 10:06:05;;;;;;;4.13;1.30;;;12.40;99.90;;;;;;5131358;28;20144;-76
2023/04/07 10:08:35;;;;;;;3.97;1.40;;;12.40;99.90;;;;;;5130939;28;20072;-78
2023/04/07 10:11:02;;;;;;;4.20;1.77;;;12.40;99.90;;;;;;5131429;28;20050;-75
2023/04/07 10:13:29;;;;;;;8.88;1.90;;;12.50;99.90;;;;;;5131480;28;20019;-75
2023/04/07 10:15:55;;;;;;;6.78;1.98;;;12.50;99.90;;;;;;5130786;28;20038;-75
2023/04/07 10:18:25;;;;;;;5.53;1.90;;;12.50;99.90;;;;;;5131545;28;20024;-75
2023/04/07 10:20:53;;;;;;;6.85;2.20;;;12.40;99.90;;;;;;5130697;28;20019;-76
2023/04/07 10:23:25;;;;;;;3.83;2.00;;;12.50;99.90;;;;;;5131433;28;20040;-75
2023/04/07 10:25:53;;;;;;;7.70;2.88;;;12.60;99.90;;;;;;5130791;28;20391;-75
2023/04/07 10:28:23;;;;;;;24.15;4.10;;;12.60;99.90;;;;;;5131782;27;20058;-76
2023/04/07 10:30:49;;;;;;;11.13;2.83;;;12.60;99.90;;;;;;5116164;27;20202;-75
2023/04/07 10:33:15;;;;;;;7.13;2.38;;;12.70;99.90;;;;;;5114559;28;20464;-76
2023/04/07 10:36:04;;;;;;;6.70;2.47;;;12.80;99.90;;;;;;5113676;28;20031;-75
2023/04/07 10:38:30;;;;;;;4.88;2.35;;;12.80;99.90;;;;;;5114580;28;20016;-75
2023/04/07 10:40:56;;;;;;;6.05;2.25;;;12.90;99.90;;;;;;5113776;28;20111;-75
2023/04/07 10:43:51;;;;;;;8.98;2.60;;;12.90;99.90;;;;;;5095931;28;20328;-75
2023/04/07 10:46:17;;;;;;;5.07;2.47;;;12.80;99.90;;;;;;5082210;28;20148;-75
2023/04/07 10:49:09;;;;;;;3.53;1.77;;;12.80;99.90;;;;;;5095495;28;20496;-75
2023/04/07 10:51:35;;;;;;;5.85;1.75;;;12.90;99.90;;;;;;5113831;28;20026;-79
2023/04/07 10:54:21;;;;;;;6.72;2.30;;;12.90;99.90;;;;;;5114650;28;20027;-75
2023/04/07 10:57:02;;;;;;;88.05;12.13;;;12.90;99.90;;;;;;5113942;28;20108;-75
2023/04/07 10:59:32;;;;;;;7.07;2.15;;;12.90;99.90;;;;;;5114543;28;20111;-75
2023/04/07 11:02:13;;;;;;;4.05;1.75;;;12.70;99.90;;;;;;5095949;28;20038;-75
2023/04/07 11:04:41;;;;;;;5.82;1.92;;;12.70;99.90;;;;;;5113960;28;20039;-75
2023/04/07 11:07:07;;;;;;;6.55;1.88;;;12.60;99.90;;;;;;5096240;28;20109;-74
2023/04/07 11:09:33;;;;;;;9.10;2.30;;;12.50;99.90;;;;;;5115139;28;20085;-74
2023/04/07 11:11:59;;;;;;;6.18;1.75;;;12.60;99.90;;;;;;5113582;28;20028;-76
2023/04/07 11:14:31;;;;;;;5.80;1.92;;;12.50;99.90;;;;;;5113684;28;20019;-74
2023/04/07 11:16:59;;;;;;;2.60;1.58;;;12.40;99.90;;;;;;5112940;28;20036;-75
2023/04/07 11:19:25;;;;;;;9.00;2.00;;;12.40;99.90;;;;;;5113810;28;20429;-75
2023/04/07 11:22:14;;;;;;;8.52;2.30;;;12.50;99.90;;;;;;5112483;28;20111;-76
2023/04/07 11:24:40;;;;;;;4.15;1.70;;;12.70;99.90;;;;;;5112608;28;20035;-76
2023/04/07 11:27:15;;;;;;;6.97;1.50;;;12.80;99.90;;;;;;5113270;28;20023;-75
2023/04/07 11:29:41;;;;;;;7.68;1.50;;;12.90;99.90;;;;;;5112926;28;20028;-75
2023/04/07 11:32:07;;;;;;;3.50;1.63;;;12.90;99.90;;;;;;5094973;28;20027;-74
2023/04/07 11:34:34;;;;;;;5.03;1.63;;;12.90;99.90;;;;;;5094910;28;20023;-75
2023/04/07 11:37:26;;;;;;;7.63;1.70;;;13.00;99.90;;;;;;5112695;28;20039;-75
2023/04/07 11:39:56;;;;;;;5.63;1.92;;;13.10;99.90;;;;;;5110940;28;20398;-75
2023/04/07 11:42:39;;;;;;;3.72;1.38;;;13.10;99.90;;;;;;5094674;28;20027;-74
2023/04/07 11:45:14;;;;;;;5.93;1.60;;;13.10;99.90;;;;;;5113570;28;20164;-74
2023/04/07 11:47:40;;;;;;;6.18;1.45;;;13.00;99.90;;;;;;5094587;28;20024;-76
2023/04/07 11:50:07;;;;;;;6.05;2.17;;;13.00;99.90;;;;;;5113904;28;20022;-75
2023/04/07 11:52:48;;;;;;;6.88;1.58;;;12.90;99.90;;;;;;5113395;28;20093;-76
2023/04/07 11:55:23;;;;;;;5.00;1.75;;;12.90;99.90;;;;;;5113314;28;20019;-74
2023/04/07 11:57:52;;;;;;;7.15;2.72;;;12.80;99.90;;;;;;5112818;28;20031;-75
2023/04/07 12:00:19;;;;;;;5.97;1.83;;;12.70;99.90;;;;;;5112594;28;20110;-75
2023/04/07 12:02:45;;;;;;;6.03;1.58;;;12.70;99.90;;;;;;5112889;28;20027;-75
2023/04/07 12:05:11;;;;;;;4.35;1.60;;;12.70;99.90;;;;;;5094066;28;20023;-75
2023/04/07 12:07:39;;;;;;;5.90;1.80;;;12.70;99.90;;;;;;5111792;28;20108;-75
2023/04/07 12:10:21;;;;;;;6.45;2.08;;;12.80;99.90;;;;;;5111879;28;20058;-76
2023/04/07 12:12:47;;;;;;;4.93;2.10;;;12.90;99.90;;;;;;5110940;28;20028;-76
2023/04/07 12:15:13;;;;;;;7.95;1.73;;;12.80;99.90;;;;;;5111713;28;20027;-75
2023/04/07 12:17:46;;;;;;;3.55;1.48;;;12.80;99.90;;;;;;5093229;28;20114;-80
2023/04/07 12:20:13;;;;;;;5.43;1.58;;;12.80;99.90;;;;;;5093547;28;20130;-75
2023/04/07 12:22:40;;;;;;;5.03;1.52;;;12.80;99.90;;;;;;5111879;28;20051;-79
2023/04/07 12:25:06;;;;;;;5.57;1.48;;;12.80;99.90;;;;;;5111500;28;20020;-76
2023/04/07 12:27:32;;;;;;;6.20;1.65;;;12.80;99.90;;;;;;5112106;28;20031;-75
2023/04/07 12:29:57;;;;;;;5.80;1.33;;;12.80;99.90;;;;;;5111051;28;20465;-75
2023/04/07 12:32:23;;;;;;;5.40;1.73;;;12.90;99.90;;;;;;5111507;28;20023;-75
2023/04/07 12:34:49;;;;;;;5.68;1.42;;;12.90;99.90;;;;;;5075871;28;20356;-75
2023/04/07 12:37:15;;;;;;;4.47;1.58;;;13.00;99.90;;;;;;5092804;28;20036;-75
2023/04/07 12:39:40;;;;;;;3.00;1.30;;;13.00;99.90;;;;;;5111134;28;20024;-80
2023/04/07 12:42:10;;;;;;;4.75;1.40;;;13.00;99.90;;;;;;5110956;28;20027;-75
2023/04/07 12:44:39;;;;;;;4.38;1.52;;;13.00;99.90;;;;;;5111261;28;20137;-75
2023/04/07 12:47:05;;;;;;;6.03;1.75;;;13.00;99.90;;;;;;5110920;28;20023;-75
2023/04/07 12:49:30;;;;;;;8.60;1.98;;;13.00;99.90;;;;;;5111376;28;20106;-76